sensor_id;sensor_type;location;lat;lon;timestamp;temperature;humidity
39277;DHT22;63149;48.086;-1.606;2023-07-31T05:00:23;17.90;99.90
39277;DHT22;63149;48.086;-1.606;2023-07-31T05:02:50;17.90;99.90
39277;DHT22;63149;48.086;-1.606;2023-07-31T05:05:18;17.90;99.90
39277;DHT22;63149;48.086;-1.606;2023-07-31T05:07:44;17.90;99.90
39277;DHT22;63149;48.086;-1.606;2023-07-31T05:10:11;17.90;99.90
39277;DHT22;63149;48.086;-1.606;2023-07-31T05:12:38;17.90;99.90
39277;DHT22;63149;48.086;-1.606;2023-07-31T05:15:06;18.00;99.90
39277;DHT22;63149;48.086;-1.606;2023-07-31T05:17:34;17.90;99.90
39277;DHT22;63149;48.086;-1.606;2023-07-31T05:20:01;17.90;99.90
39277;DHT22;63149;48.086;-1.606;2023-07-31T05:22:29;17.90;99.90
39277;DHT22;63149;48.086;-1.606;2023-07-31T05:24:56;18.00;99.90
39277;DHT22;63149;48.086;-1.606;2023-07-31T05:27:23;18.00;99.90
39277;DHT22;63149;48.086;-1.606;2023-07-31T05:29:50;17.90;99.90
39277;DHT22;63149;48.086;-1.606;2023-07-31T05:32:17;17.90;99.90
39277;DHT22;63149;48.086;-1.606;2023-07-31T05:34:45;18.00;99.90
39277;DHT22;63149;48.086;-1.606;2023-07-31T05:37:12;18.00;99.90
39277;DHT22;63149;48.086;-1.606;2023-07-31T05:39:39;18.00;99.90
39277;DHT22;63149;48.086;-1.606;2023-07-31T05:42:06;18.00;99.90
39277;DHT22;63149;48.086;-1.606;2023-07-31T05:44:33;18.00;99.90
39277;DHT22;63149;48.086;-1.606;2023-07-31T05:47:00;18.00;99.90
39277;DHT22;63149;48.086;-1.606;2023-07-31T05:49:26;18.00;99.90
39277;DHT22;63149;48.086;-1.606;2023-07-31T05:51:55;18.00;99.90
39277;DHT22;63149;48.086;-1.606;2023-07-31T05:54:22;18.00;99.90
39277;DHT22;63149;48.086;-1.606;2023-07-31T05:56:49;18.10;99.90
39277;DHT22;63149;48.086;-1.606;2023-07-31T05:59:16;18.10;99.90
39277;DHT22;63149;48.086;-1.606;2023-07-31T06:01:43;18.10;99.90
39277;DHT22;63149;48.086;-1.606;2023-07-31T06:04:10;18.10;99.90
39277;DHT22;63149;48.086;-1.606;2023-07-31T06:06:37;18.10;99.90
39277;DHT22;63149;48.086;-1.606;2023-07-31T06:09:05;18.10;99.90
39277;DHT22;63149;48.086;-1.606;2023-07-31T06:11:32;18.10;99.90
39277;DHT22;63149;48.086;-1.606;2023-07-31T06:13:59;18.20;99.90
39277;DHT22;63149;48.086;-1.606;2023-07-31T06:16:26;18.10;99.90
39277;DHT22;63149;48.086;-1.606;2023-07-31T06:18:53;18.20;99.90
39277;DHT22;63149;48.086;-1.606;2023-07-31T06:21:20;18.10;99.90
39277;DHT22;63149;48.086;-1.606;2023-07-31T06:23:47;18.20;99.90
39277;DHT22;63149;48.086;-1.606;2023-07-31T06:26:15;18.20;99.90
39277;DHT22;63149;48.086;-1.606;2023-07-31T06:28:42;18.20;99.90
39277;DHT22;63149;48.086;-1.606;2023-07-31T06:31:09;18.20;99.90
39277;DHT22;63149;48.086;-1.606;2023-07-31T06:33:36;18.20;99.90
39277;DHT22;63149;48.086;-1.606;2023-07-31T06:36:03;18.20;99.90
39277;DHT22;63149;48.086;-1.606;2023-07-31T06:38:30;18.30;99.90
39277;DHT22;63149;48.086;-1.606;2023-07-31T06:40:57;18.30;99.90
39277;DHT22;63149;48.086;-1.606;2023-07-31T06:43:25;18.30;99.90
39277;DHT22;63149;48.086;-1.606;2023-07-31T06:45:52;18.30;99.90
39277;DHT22;63149;48.086;-1.606;2023-07-31T06:48:19;18.30;99.90
39277;DHT22;63149;48.086;-1.606;2023-07-31T06:50:46;18.40;99.90
39277;DHT22;63149;48.086;-1.606;2023-07-31T06:53:13;18.40;99.90
39277;DHT22;63149;48.086;-1.606;2023-07-31T06:55:40;18.40;99.90
39277;DHT22;63149;48.086;-1.606;2023-07-31T06:58:07;18.40;99.90
39277;DHT22;63149;48.086;-1.606;2023-07-31T07:00:35;18.40;99.90
39277;DHT22;63149;48.086;-1.606;2023-07-31T07:03:02;18.40;99.90
39277;DHT22;63149;48.086;-1.606;2023-07-31T07:05:29;18.40;99.90
39277;DHT22;63149;48.086;-1.606;2023-07-31T07:07:56;18.40;99.90
39277;DHT22;63149;48.086;-1.606;2023-07-31T07:10:23;18.40;99.90
39277;DHT22;63149;48.086;-1.606;2023-07-31T07:12:50;18.40;99.90
39277;DHT22;63149;48.086;-1.606;2023-07-31T07:15:17;18.40;99.90
39277;DHT22;63149;48.086;-1.606;2023-07-31T07:17:45;18.50;99.90
39277;DHT22;63149;48.086;-1.606;2023-07-31T07:20:12;18.50;99.90
39277;DHT22;63149;48.086;-1.606;2023-07-31T07:22:39;18.50;99.90
39277;DHT22;63149;48.086;-1.606;2023-07-31T07:25:09;18.50;99.90
39277;DHT22;63149;48.086;-1.606;2023-07-31T07:27:35;18.50;99.90
39277;DHT22;63149;48.086;-1.606;2023-07-31T07:30:03;18.50;99.90
39277;DHT22;63149;48.086;-1.606;2023-07-31T07:32:30;18.50;99.90
39277;DHT22;63149;48.086;-1.606;2023-07-31T07:34:58;18.50;99.90
39277;DHT22;63149;48.086;-1.606;2023-07-31T07:37:25;18.50;99.90
39277;DHT22;63149;48.086;-1.606;2023-07-31T07:39:52;18.50;99.90
39277;DHT22;63149;48.086;-1.606;2023-07-31T07:42:19;18.50;99.90
39277;DHT22;63149;48.086;-1.606;2023-07-31T07:44:46;18.60;99.90
39277;DHT22;63149;48.086;-1.606;2023-07-31T07:47:13;18.60;99.90
39277;DHT22;63149;48.086;-1.606;2023-07-31T07:49:40;18.60;99.90
39277;DHT22;63149;48.086;-1.606;2023-07-31T07:52:08;18.60;99.90
39277;DHT22;63149;48.086;-1.606;2023-07-31T07:54:35;18.60;99.90
39277;DHT22;63149;48.086;-1.606;2023-07-31T07:57:02;18.60;99.90
39277;DHT22;63149;48.086;-1.606;2023-07-31T07:59:29;18.70;99.90
39277;DHT22;63149;48.086;-1.606;2023-07-31T08:01:56;18.70;99.90
39277;DHT22;63149;48.086;-1.606;2023-07-31T08:04:23;18.60;99.90
39277;DHT22;63149;48.086;-1.606;2023-07-31T08:06:50;18.70;99.90
39277;DHT22;63149;48.086;-1.606;2023-07-31T08:09:18;18.70;99.90
39277;DHT22;63149;48.086;-1.606;2023-07-31T08:11:45;18.70;99.90
39277;DHT22;63149;48.086;-1.606;2023-07-31T08:14:13;18.70;99.90
39277;DHT22;63149;48.086;-1.606;2023-07-31T08:16:40;18.80;99.90
39277;DHT22;63149;48.086;-1.606;2023-07-31T08:19:07;18.80;99.90
39277;DHT22;63149;48.086;-1.606;2023-07-31T08:21:34;18.80;99.90
39277;DHT22;63149;48.086;-1.606;2023-07-31T08:24:01;18.80;99.90
39277;DHT22;63149;48.086;-1.606;2023-07-31T08:26:29;18.80;99.90
39277;DHT22;63149;48.086;-1.606;2023-07-31T08:28:56;18.90;99.90
39277;DHT22;63149;48.086;-1.606;2023-07-31T08:31:23;18.90;99.90
39277;DHT22;63149;48.086;-1.606;2023-07-31T08:33:50;18.90;99.90
39277;DHT22;63149;48.086;-1.606;2023-07-31T08:36:16;18.90;99.90
39277;DHT22;63149;48.086;-1.606;2023-07-31T08:38:45;18.90;99.90
39277;DHT22;63149;48.086;-1.606;2023-07-31T08:41:12;18.90;99.90
39277;DHT22;63149;48.086;-1.606;2023-07-31T08:43:41;18.90;99.90
39277;DHT22;63149;48.086;-1.606;2023-07-31T08:46:08;19.00;99.90
39277;DHT22;63149;48.086;-1.606;2023-07-31T08:48:35;19.00;99.90
39277;DHT22;63149;48.086;-1.606;2023-07-31T08:51:03;19.00;99.90
39277;DHT22;63149;48.086;-1.606;2023-07-31T08:53:30;19.00;99.90
39277;DHT22;63149;48.086;-1.606;2023-07-31T08:55:58;19.00;99.90
39277;DHT22;63149;48.086;-1.606;2023-07-31T08:58:27;19.00;99.90
39277;DHT22;63149;48.086;-1.606;2023-07-31T09:00:57;19.00;99.90
39277;DHT22;63149;48.086;-1.606;2023-07-31T09:03:26;19.00;99.90
39277;DHT22;63149;48.086;-1.606;2023-07-31T09:05:53;19.10;99.90
39277;DHT22;63149;48.086;-1.606;2023-07-31T09:08:22;19.00;99.90
39277;DHT22;63149;48.086;-1.606;2023-07-31T09:10:49;19.10;99.90
39277;DHT22;63149;48.086;-1.606;2023-07-31T09:13:17;19.10;99.90
39277;DHT22;63149;48.086;-1.606;2023-07-31T09:15:45;19.10;99.90
39277;DHT22;63149;48.086;-1.606;2023-07-31T09:18:14;19.10;99.90
39277;DHT22;63149;48.086;-1.606;2023-07-31T09:20:44;19.10;99.90
39277;DHT22;63149;48.086;-1.606;2023-07-31T09:23:12;19.20;99.90
39277;DHT22;63149;48.086;-1.606;2023-07-31T09:25:43;19.20;99.90
39277;DHT22;63149;48.086;-1.606;2023-07-31T09:28:11;19.20;99.90
39277;DHT22;63149;48.086;-1.606;2023-07-31T09:30:46;19.20;99.90
39277;DHT22;63149;48.086;-1.606;2023-07-31T09:33:16;19.20;99.90
39277;DHT22;63149;48.086;-1.606;2023-07-31T09:35:43;19.20;99.90
39277;DHT22;63149;48.086;-1.606;2023-07-31T09:38:11;19.20;99.90
39277;DHT22;63149;48.086;-1.606;2023-07-31T09:40:39;19.30;99.90
39277;DHT22;63149;48.086;-1.606;2023-07-31T09:43:08;19.30;99.90
39277;DHT22;63149;48.086;-1.606;2023-07-31T09:45:37;19.40;99.90
39277;DHT22;63149;48.086;-1.606;2023-07-31T09:48:07;19.50;99.90
39277;DHT22;63149;48.086;-1.606;2023-07-31T09:50:37;19.70;99.90
39277;DHT22;63149;48.086;-1.606;2023-07-31T09:53:05;19.90;99.90
39277;DHT22;63149;48.086;-1.606;2023-07-31T09:55:32;19.90;99.90
39277;DHT22;63149;48.086;-1.606;2023-07-31T09:58:00;20.10;99.90
39277;DHT22;63149;48.086;-1.606;2023-07-31T10:00:30;20.10;99.90
39277;DHT22;63149;48.086;-1.606;2023-07-31T10:02:59;20.20;99.90
39277;DHT22;63149;48.086;-1.606;2023-07-31T10:05:29;20.30;99.90
39277;DHT22;63149;48.086;-1.606;2023-07-31T10:07:58;20.30;99.90
39277;DHT22;63149;48.086;-1.606;2023-07-31T10:10:26;20.40;99.90
39277;DHT22;63149;48.086;-1.606;2023-07-31T10:12:56;20.40;99.90
39277;DHT22;63149;48.086;-1.606;2023-07-31T10:15:23;20.40;99.90
39277;DHT22;63149;48.086;-1.606;2023-07-31T10:17:52;20.40;99.90
39277;DHT22;63149;48.086;-1.606;2023-07-31T10:20:20;20.40;99.90
39277;DHT22;63149;48.086;-1.606;2023-07-31T10:22:48;20.40;99.90
39277;DHT22;63149;48.086;-1.606;2023-07-31T10:25:18;20.30;99.90
39277;DHT22;63149;48.086;-1.606;2023-07-31T10:27:47;20.30;99.90
39277;DHT22;63149;48.086;-1.606;2023-07-31T10:30:16;20.30;99.90
39277;DHT22;63149;48.086;-1.606;2023-07-31T10:32:45;20.20;99.90
39277;DHT22;63149;48.086;-1.606;2023-07-31T10:35:12;20.20;99.90
39277;DHT22;63149;48.086;-1.606;2023-07-31T10:37:40;20.20;99.90
39277;DHT22;63149;48.086;-1.606;2023-07-31T10:40:11;20.20;99.90
39277;DHT22;63149;48.086;-1.606;2023-07-31T10:42:47;20.10;99.90
39277;DHT22;63149;48.086;-1.606;2023-07-31T10:45:24;20.10;99.90
39277;DHT22;63149;48.086;-1.606;2023-07-31T10:47:58;20.10;99.90
39277;DHT22;63149;48.086;-1.606;2023-07-31T10:50:26;20.10;99.90
39277;DHT22;63149;48.086;-1.606;2023-07-31T10:52:54;20.10;99.90
39277;DHT22;63149;48.086;-1.606;2023-07-31T10:55:40;20.10;99.90
39277;DHT22;63149;48.086;-1.606;2023-07-31T10:58:10;20.10;99.90
39277;DHT22;63149;48.086;-1.606;2023-07-31T11:00:38;20.10;99.90
39277;DHT22;63149;48.086;-1.606;2023-07-31T11:03:06;20.10;99.90
39277;DHT22;63149;48.086;-1.606;2023-07-31T11:05:48;20.10;99.90
39277;DHT22;63149;48.086;-1.606;2023-07-31T11:08:18;20.20;99.90
39277;DHT22;63149;48.086;-1.606;2023-07-31T11:10:48;20.20;99.90
39277;DHT22;63149;48.086;-1.606;2023-07-31T11:13:17;20.20;99.90
39277;DHT22;63149;48.086;-1.606;2023-07-31T11:15:43;20.30;99.90
39277;DHT22;63149;48.086;-1.606;2023-07-31T11:18:10;20.30;99.90
39277;DHT22;63149;48.086;-1.606;2023-07-31T11:20:38;20.30;99.90
39277;DHT22;63149;48.086;-1.606;2023-07-31T11:23:09;20.30;99.90
39277;DHT22;63149;48.086;-1.606;2023-07-31T11:25:37;20.30;99.90
39277;DHT22;63149;48.086;-1.606;2023-07-31T11:28:07;20.40;99.90
39277;DHT22;63149;48.086;-1.606;2023-07-31T11:30:35;20.40;99.90
39277;DHT22;63149;48.086;-1.606;2023-07-31T11:33:03;20.40;99.90
39277;DHT22;63149;48.086;-1.606;2023-07-31T11:35:32;20.40;99.90
39277;DHT22;63149;48.086;-1.606;2023-07-31T11:37:59;20.40;99.90
39277;DHT22;63149;48.086;-1.606;2023-07-31T11:40:26;20.40;99.90
39277;DHT22;63149;48.086;-1.606;2023-07-31T11:42:56;20.50;99.90
39277;DHT22;63149;48.086;-1.606;2023-07-31T11:45:25;20.50;99.90
39277;DHT22;63149;48.086;-1.606;2023-07-31T11:47:55;20.40;99.90
39277;DHT22;63149;48.086;-1.606;2023-07-31T11:50:23;20.50;99.90
39277;DHT22;63149;48.086;-1.606;2023-07-31T11:52:53;20.40;99.90
39277;DHT22;63149;48.086;-1.606;2023-07-31T11:55:22;20.40;99.90
39277;DHT22;63149;48.086;-1.606;2023-07-31T11:57:50;20.40;99.90
39277;DHT22;63149;48.086;-1.606;2023-07-31T12:00:17;20.40;99.90
39277;DHT22;63149;48.086;-1.606;2023-07-31T12:02:45;20.40;99.90
39277;DHT22;63149;48.086;-1.606;2023-07-31T12:05:13;20.40;99.90
39277;DHT22;63149;48.086;-1.606;2023-07-31T12:07:45;20.40;99.90
39277;DHT22;63149;48.086;-1.606;2023-07-31T12:10:23;20.40;99.90
39277;DHT22;63149;48.086;-1.606;2023-07-31T12:12:56;20.40;99.90
39277;DHT22;63149;48.086;-1.606;2023-07-31T12:15:35;20.50;99.90
39277;DHT22;63149;48.086;-1.606;2023-07-31T12:18:08;20.50;99.90
39277;DHT22;63149;48.086;-1.606;2023-07-31T12:20:40;20.60;99.90
39277;DHT22;63149;48.086;-1.606;2023-07-31T12:23:13;20.60;99.90
39277;DHT22;63149;48.086;-1.606;2023-07-31T12:25:41;20.70;99.90
39277;DHT22;63149;48.086;-1.606;2023-07-31T12:28:08;20.70;99.90
39277;DHT22;63149;48.086;-1.606;2023-07-31T12:30:38;20.80;99.90
39277;DHT22;63149;48.086;-1.606;2023-07-31T12:33:10;20.80;99.90
39277;DHT22;63149;48.086;-1.606;2023-07-31T12:35:43;20.80;99.90
39277;DHT22;63149;48.086;-1.606;2023-07-31T12:38:11;20.80;99.90
39277;DHT22;63149;48.086;-1.606;2023-07-31T12:40:39;20.80;99.90
39277;DHT22;63149;48.086;-1.606;2023-07-31T12:43:06;20.80;99.90
39277;DHT22;63149;48.086;-1.606;2023-07-31T12:45:34;20.80;99.90
39277;DHT22;63149;48.086;-1.606;2023-07-31T12:48:01;20.80;99.90
39277;DHT22;63149;48.086;-1.606;2023-07-31T12:50:28;20.80;99.90
39277;DHT22;63149;48.086;-1.606;2023-07-31T12:52:57;20.70;99.90
39277;DHT22;63149;48.086;-1.606;2023-07-31T12:55:24;20.70;99.90
39277;DHT22;63149;48.086;-1.606;2023-07-31T12:57:51;20.80;99.90
39277;DHT22;63149;48.086;-1.606;2023-07-31T13:00:18;20.80;99.90
39277;DHT22;63149;48.086;-1.606;2023-07-31T13:02:45;20.80;99.90
39277;DHT22;63149;48.086;-1.606;2023-07-31T13:05:12;20.80;99.90
39277;DHT22;63149;48.086;-1.606;2023-07-31T13:07:39;20.80;99.90
39277;DHT22;63149;48.086;-1.606;2023-07-31T13:10:08;20.80;99.90
39277;DHT22;63149;48.086;-1.606;2023-07-31T13:12:35;20.80;99.90
39277;DHT22;63149;48.086;-1.606;2023-07-31T13:15:02;20.80;99.90
39277;DHT22;63149;48.086;-1.606;2023-07-31T13:17:29;20.80;99.90
39277;DHT22;63149;48.086;-1.606;2023-07-31T13:19:56;20.80;99.90
39277;DHT22;63149;48.086;-1.606;2023-07-31T13:22:23;20.80;99.90
39277;DHT22;63149;48.086;-1.606;2023-07-31T13:24:50;20.80;99.90
39277;DHT22;63149;48.086;-1.606;2023-07-31T13:27:18;20.80;99.90
39277;DHT22;63149;48.086;-1.606;2023-07-31T13:29:47;20.70;99.90
39277;DHT22;63149;48.086;-1.606;2023-07-31T13:32:15;20.70;99.90
39277;DHT22;63149;48.086;-1.606;2023-07-31T13:34:42;20.70;99.90
39277;DHT22;63149;48.086;-1.606;2023-07-31T13:37:09;20.70;99.90
39277;DHT22;63149;48.086;-1.606;2023-07-31T13:39:36;20.60;99.90
39277;DHT22;63149;48.086;-1.606;2023-07-31T13:42:04;20.60;99.90
39277;DHT22;63149;48.086;-1.606;2023-07-31T13:44:33;20.60;99.90
39277;DHT22;63149;48.086;-1.606;2023-07-31T13:47:00;20.50;99.90
39277;DHT22;63149;48.086;-1.606;2023-07-31T13:49:27;20.50;99.90
39277;DHT22;63149;48.086;-1.606;2023-07-31T13:51:54;20.50;99.90
39277;DHT22;63149;48.086;-1.606;2023-07-31T13:54:22;20.40;99.90
39277;DHT22;63149;48.086;-1.606;2023-07-31T13:56:49;20.40;99.90
39277;DHT22;63149;48.086;-1.606;2023-07-31T13:59:16;20.40;99.90
39277;DHT22;63149;48.086;-1.606;2023-07-31T14:01:45;20.40;99.90
39277;DHT22;63149;48.086;-1.606;2023-07-31T14:04:12;20.40;99.90
39277;DHT22;63149;48.086;-1.606;2023-07-31T14:06:39;20.30;99.90
39277;DHT22;63149;48.086;-1.606;2023-07-31T14:09:06;20.30;99.90
39277;DHT22;63149;48.086;-1.606;2023-07-31T14:11:33;20.30;99.90
39277;DHT22;63149;48.086;-1.606;2023-07-31T14:14:00;20.30;99.90
39277;DHT22;63149;48.086;-1.606;2023-07-31T14:16:28;20.20;99.90
39277;DHT22;63149;48.086;-1.606;2023-07-31T14:18:56;20.20;99.90
39277;DHT22;63149;48.086;-1.606;2023-07-31T14:21:24;20.20;99.90
39277;DHT22;63149;48.086;-1.606;2023-07-31T14:23:51;20.20;99.90
39277;DHT22;63149;48.086;-1.606;2023-07-31T14:26:18;20.20;99.90
39277;DHT22;63149;48.086;-1.606;2023-07-31T14:28:45;20.10;99.90
39277;DHT22;63149;48.086;-1.606;2023-07-31T14:31:12;20.10;99.90
39277;DHT22;63149;48.086;-1.606;2023-07-31T14:33:39;20.10;99.90
39277;DHT22;63149;48.086;-1.606;2023-07-31T14:36:08;20.10;99.90
39277;DHT22;63149;48.086;-1.606;2023-07-31T14:38:34;20.10;99.90
39277;DHT22;63149;48.086;-1.606;2023-07-31T14:41:01;20.10;99.90
39277;DHT22;63149;48.086;-1.606;2023-07-31T14:43:28;20.00;99.90
39277;DHT22;63149;48.086;-1.606;2023-07-31T14:45:55;20.00;99.90
39277;DHT22;63149;48.086;-1.606;2023-07-31T14:48:24;20.00;99.90
39277;DHT22;63149;48.086;-1.606;2023-07-31T14:50:51;20.00;99.90
39277;DHT22;63149;48.086;-1.606;2023-07-31T14:53:20;20.00;99.90
39277;DHT22;63149;48.086;-1.606;2023-07-31T14:55:47;19.90;99.90
39277;DHT22;63149;48.086;-1.606;2023-07-31T14:58:14;19.90;99.90
39277;DHT22;63149;48.086;-1.606;2023-07-31T15:00:42;20.00;99.90
39277;DHT22;63149;48.086;-1.606;2023-07-31T15:03:09;19.90;99.90
39277;DHT22;63149;48.086;-1.606;2023-07-31T15:05:36;19.90;99.90
39277;DHT22;63149;48.086;-1.606;2023-07-31T15:08:03;19.90;99.90
39277;DHT22;63149;48.086;-1.606;2023-07-31T15:10:32;19.90;99.90
39277;DHT22;63149;48.086;-1.606;2023-07-31T15:12:58;19.90;99.90
39277;DHT22;63149;48.086;-1.606;2023-07-31T15:15:27;19.90;99.90
39277;DHT22;63149;48.086;-1.606;2023-07-31T15:17:53;19.90;99.90
39277;DHT22;63149;48.086;-1.606;2023-07-31T15:20:21;19.90;99.90
39277;DHT22;63149;48.086;-1.606;2023-07-31T15:22:48;19.90;99.90
39277;DHT22;63149;48.086;-1.606;2023-07-31T15:25:16;19.90;99.90
39277;DHT22;63149;48.086;-1.606;2023-07-31T15:27:44;19.90;99.90
39277;DHT22;63149;48.086;-1.606;2023-07-31T15:30:11;19.90;99.90
39277;DHT22;63149;48.086;-1.606;2023-07-31T15:32:38;19.90;99.90
39277;DHT22;63149;48.086;-1.606;2023-07-31T15:35:06;19.90;99.90
39277;DHT22;63149;48.086;-1.606;2023-07-31T15:37:33;20.00;99.90
39277;DHT22;63149;48.086;-1.606;2023-07-31T15:40:00;20.00;99.90
39277;DHT22;63149;48.086;-1.606;2023-07-31T15:42:27;20.00;99.90
39277;DHT22;63149;48.086;-1.606;2023-07-31T15:44:55;20.00;99.90
39277;DHT22;63149;48.086;-1.606;2023-07-31T15:47:22;20.00;99.90
39277;DHT22;63149;48.086;-1.606;2023-07-31T15:49:49;20.00;99.90
39277;DHT22;63149;48.086;-1.606;2023-07-31T15:52:16;20.00;99.90
39277;DHT22;63149;48.086;-1.606;2023-07-31T15:54:42;20.00;99.90
39277;DHT22;63149;48.086;-1.606;2023-07-31T15:57:09;20.00;99.90
39277;DHT22;63149;48.086;-1.606;2023-07-31T15:59:36;20.00;99.90
39277;DHT22;63149;48.086;-1.606;2023-07-31T16:02:05;20.00;99.90
39277;DHT22;63149;48.086;-1.606;2023-07-31T16:04:33;20.00;99.90
39277;DHT22;63149;48.086;-1.606;2023-07-31T16:07:00;19.90;99.90
39277;DHT22;63149;48.086;-1.606;2023-07-31T16:09:27;20.00;99.90
39277;DHT22;63149;48.086;-1.606;2023-07-31T16:11:54;20.00;99.90
39277;DHT22;63149;48.086;-1.606;2023-07-31T16:14:21;19.90;99.90
39277;DHT22;63149;48.086;-1.606;2023-07-31T16:16:48;19.90;99.90
39277;DHT22;63149;48.086;-1.606;2023-07-31T16:19:16;19.90;99.90
39277;DHT22;63149;48.086;-1.606;2023-07-31T16:21:43;19.90;99.90
39277;DHT22;63149;48.086;-1.606;2023-07-31T16:24:10;19.90;99.90
39277;DHT22;63149;48.086;-1.606;2023-07-31T16:26:37;19.90;99.90
39277;DHT22;63149;48.086;-1.606;2023-07-31T16:29:04;19.90;99.90
39277;DHT22;63149;48.086;-1.606;2023-07-31T16:31:31;19.90;99.90
39277;DHT22;63149;48.086;-1.606;2023-07-31T16:33:58;19.90;99.90
39277;DHT22;63149;48.086;-1.606;2023-07-31T16:36:26;19.90;99.90
39277;DHT22;63149;48.086;-1.606;2023-07-31T16:38:53;19.90;99.90
39277;DHT22;63149;48.086;-1.606;2023-07-31T16:41:21;19.90;99.90
39277;DHT22;63149;48.086;-1.606;2023-07-31T16:43:49;19.90;99.90
39277;DHT22;63149;48.086;-1.606;2023-07-31T16:46:16;19.90;99.90
39277;DHT22;63149;48.086;-1.606;2023-07-31T16:48:42;19.90;99.90
39277;DHT22;63149;48.086;-1.606;2023-07-31T16:51:09;19.90;99.90
39277;DHT22;63149;48.086;-1.606;2023-07-31T16:53:38;19.90;99.90
39277;DHT22;63149;48.086;-1.606;2023-07-31T16:56:05;19.90;99.90
39277;DHT22;63149;48.086;-1.606;2023-07-31T16:58:32;19.90;99.90
39277;DHT22;63149;48.086;-1.606;2023-07-31T17:00:59;19.90;99.90
39277;DHT22;63149;48.086;-1.606;2023-07-31T17:03:26;19.90;99.90
39277;DHT22;63149;48.086;-1.606;2023-07-31T17:05:53;19.80;99.90
39277;DHT22;63149;48.086;-1.606;2023-07-31T17:08:20;19.90;99.90
39277;DHT22;63149;48.086;-1.606;2023-07-31T17:10:48;19.90;99.90
39277;DHT22;63149;48.086;-1.606;2023-07-31T17:13:15;19.80;99.90
39277;DHT22;63149;48.086;-1.606;2023-07-31T17:15:42;19.80;99.90
39277;DHT22;63149;48.086;-1.606;2023-07-31T17:18:09;19.80;99.90
39277;DHT22;63149;48.086;-1.606;2023-07-31T17:20:36;19.80;99.90
39277;DHT22;63149;48.086;-1.606;2023-07-31T17:23:03;19.80;99.90
39277;DHT22;63149;48.086;-1.606;2023-07-31T17:25:30;19.80;99.90
39277;DHT22;63149;48.086;-1.606;2023-07-31T17:27:58;19.80;99.90
39277;DHT22;63149;48.086;-1.606;2023-07-31T17:30:25;19.80;99.90
39277;DHT22;63149;48.086;-1.606;2023-07-31T17:32:52;19.80;99.90
39277;DHT22;63149;48.086;-1.606;2023-07-31T17:35:19;19.80;99.90
39277;DHT22;63149;48.086;-1.606;2023-07-31T17:37:46;19.80;99.90
39277;DHT22;63149;48.086;-1.606;2023-07-31T17:40:13;19.80;99.90
39277;DHT22;63149;48.086;-1.606;2023-07-31T17:42:40;19.80;99.90
39277;DHT22;63149;48.086;-1.606;2023-07-31T17:45:09;19.80;99.90
39277;DHT22;63149;48.086;-1.606;2023-07-31T17:47:36;19.80;99.90
39277;DHT22;63149;48.086;-1.606;2023-07-31T17:50:04;19.80;99.90
39277;DHT22;63149;48.086;-1.606;2023-07-31T17:52:32;19.80;99.90
39277;DHT22;63149;48.086;-1.606;2023-07-31T17:55:00;19.80;99.90
39277;DHT22;63149;48.086;-1.606;2023-07-31T17:57:27;19.70;99.90
39277;DHT22;63149;48.086;-1.606;2023-07-31T17:59:54;19.70;99.90
39277;DHT22;63149;48.086;-1.606;2023-07-31T18:02:23;19.70;99.90
39277;DHT22;63149;48.086;-1.606;2023-07-31T18:04:49;19.70;99.90
39277;DHT22;63149;48.086;-1.606;2023-07-31T18:07:16;19.70;99.90
39277;DHT22;63149;48.086;-1.606;2023-07-31T18:09:43;19.70;99.90
39277;DHT22;63149;48.086;-1.606;2023-07-31T18:12:10;19.70;99.90
39277;DHT22;63149;48.086;-1.606;2023-07-31T18:14:37;19.70;99.90
39277;DHT22;63149;48.086;-1.606;2023-07-31T18:17:05;19.70;99.90
39277;DHT22;63149;48.086;-1.606;2023-07-31T18:19:34;19.70;99.90
39277;DHT22;63149;48.086;-1.606;2023-07-31T18:22:01;19.70;99.90
39277;DHT22;63149;48.086;-1.606;2023-07-31T18:24:28;19.70;99.90
39277;DHT22;63149;48.086;-1.606;2023-07-31T18:26:54;19.70;99.90
39277;DHT22;63149;48.086;-1.606;2023-07-31T18:29:22;19.70;99.90
39277;DHT22;63149;48.086;-1.606;2023-07-31T18:31:49;19.70;99.90
39277;DHT22;63149;48.086;-1.606;2023-07-31T18:34:15;19.70;99.90
39277;DHT22;63149;48.086;-1.606;2023-07-31T18:36:44;19.60;99.90
39277;DHT22;63149;48.086;-1.606;2023-07-31T18:39:11;19.60;99.90
39277;DHT22;63149;48.086;-1.606;2023-07-31T18:41:37;19.60;99.90
39277;DHT22;63149;48.086;-1.606;2023-07-31T18:44:05;19.60;99.90
39277;DHT22;63149;48.086;-1.606;2023-07-31T18:46:32;19.60;99.90
39277;DHT22;63149;48.086;-1.606;2023-07-31T18:48:59;19.50;99.90
39277;DHT22;63149;48.086;-1.606;2023-07-31T18:51:26;19.50;99.90
39277;DHT22;63149;48.086;-1.606;2023-07-31T18:53:55;19.50;99.90
39277;DHT22;63149;48.086;-1.606;2023-07-31T18:56:22;19.50;99.90
39277;DHT22;63149;48.086;-1.606;2023-07-31T18:58:49;19.50;99.90
39277;DHT22;63149;48.086;-1.606;2023-07-31T19:01:17;19.50;99.90
39277;DHT22;63149;48.086;-1.606;2023-07-31T19:03:43;19.50;99.90
39277;DHT22;63149;48.086;-1.606;2023-07-31T19:06:10;19.50;99.90
39277;DHT22;63149;48.086;-1.606;2023-07-31T19:08:37;19.40;99.90
39277;DHT22;63149;48.086;-1.606;2023-07-31T19:11:06;19.40;99.90
39277;DHT22;63149;48.086;-1.606;2023-07-31T19:13:33;19.40;99.90
39277;DHT22;63149;48.086;-1.606;2023-07-31T19:16:00;19.40;99.90
39277;DHT22;63149;48.086;-1.606;2023-07-31T19:18:27;19.40;99.90
39277;DHT22;63149;48.086;-1.606;2023-07-31T19:20:54;19.40;99.90
39277;DHT22;63149;48.086;-1.606;2023-07-31T19:23:21;19.40;99.90
39277;DHT22;63149;48.086;-1.606;2023-07-31T19:25:48;19.40;99.90
39277;DHT22;63149;48.086;-1.606;2023-07-31T19:28:16;19.30;99.90
39277;DHT22;63149;48.086;-1.606;2023-07-31T19:30:43;19.30;99.90
39277;DHT22;63149;48.086;-1.606;2023-07-31T19:33:10;19.40;99.90
39277;DHT22;63149;48.086;-1.606;2023-07-31T19:35:39;19.30;99.90
39277;DHT22;63149;48.086;-1.606;2023-07-31T19:38:06;19.30;99.90
39277;DHT22;63149;48.086;-1.606;2023-07-31T19:40:33;19.30;99.90
39277;DHT22;63149;48.086;-1.606;2023-07-31T19:43:00;19.30;99.90
39277;DHT22;63149;48.086;-1.606;2023-07-31T19:45:29;19.30;99.90
39277;DHT22;63149;48.086;-1.606;2023-07-31T19:47:56;19.30;99.90
39277;DHT22;63149;48.086;-1.606;2023-07-31T19:50:23;19.30;99.90
39277;DHT22;63149;48.086;-1.606;2023-07-31T19:52:50;19.30;99.90
39277;DHT22;63149;48.086;-1.606;2023-07-31T19:55:17;19.30;99.90
39277;DHT22;63149;48.086;-1.606;2023-07-31T19:57:44;19.30;99.90
39277;DHT22;63149;48.086;-1.606;2023-07-31T20:00:11;19.20;99.90
39277;DHT22;63149;48.086;-1.606;2023-07-31T20:02:39;19.20;99.90
39277;DHT22;63149;48.086;-1.606;2023-07-31T20:05:07;19.20;99.90
39277;DHT22;63149;48.086;-1.606;2023-07-31T20:07:34;19.20;99.90
39277;DHT22;63149;48.086;-1.606;2023-07-31T20:10:01;19.20;99.90
39277;DHT22;63149;48.086;-1.606;2023-07-31T20:12:28;19.20;99.90
39277;DHT22;63149;48.086;-1.606;2023-07-31T20:14:59;19.20;99.90
39277;DHT22;63149;48.086;-1.606;2023-07-31T20:17:26;19.20;99.90